Time;durP1;ratioP1;P1;durP2;ratioP2;P2;SDS_P1;SDS_P2;PMS_P1;PMS_P2;Temp;Humidity;BMP_temperature;BMP_pressure;BME280_temperature;BME280_humidity;BME280_pressure;Samples;Min_cycle;Max_cycle;Signal;HPM_P1;HPM_P2
2023/01/07 00:01:09;;;;;;;15.27;13.43;;;8.60;99.90;;;;;;5019065;28;20194;-76
2023/01/07 00:03:35;;;;;;;15.20;13.60;;;8.50;99.90;;;;;;5030594;28;20202;-76
2023/01/07 00:06:03;;;;;;;15.80;12.30;;;8.40;99.90;;;;;;5030757;28;20174;-77
2023/01/07 00:08:30;;;;;;;16.57;12.83;;;8.40;99.90;;;;;;5028512;28;20270;-77
2023/01/07 00:10:56;;;;;;;16.17;13.73;;;8.40;99.90;;;;;;5030153;28;20202;-77
2023/01/07 00:13:22;;;;;;;16.10;14.40;;;8.40;99.90;;;;;;5029284;28;20203;-77
2023/01/07 00:15:48;;;;;;;15.33;13.77;;;8.40;99.90;;;;;;5028852;28;20232;-77
2023/01/07 00:18:13;;;;;;;15.53;14.03;;;8.40;99.90;;;;;;5028457;28;20282;-77
2023/01/07 00:20:39;;;;;;;16.87;15.10;;;8.40;99.90;;;;;;5030044;28;20248;-76
2023/01/07 00:23:05;;;;;;;16.77;15.03;;;8.40;99.90;;;;;;5030192;28;20556;-78
2023/01/07 00:25:30;;;;;;;16.77;15.07;;;8.40;99.90;;;;;;5030630;28;20182;-76
2023/01/07 00:27:56;;;;;;;22.03;14.43;;;8.40;99.90;;;;;;5029998;28;20227;-76
2023/01/07 00:30:22;;;;;;;17.77;14.93;;;8.40;99.90;;;;;;5029685;28;20757;-77
2023/01/07 00:32:58;;;;;;;15.63;14.10;;;8.40;99.90;;;;;;5030549;28;20218;-76
2023/01/07 00:35:24;;;;;;;16.17;14.50;;;8.40;99.90;;;;;;5029522;28;20237;-76
2023/01/07 00:37:52;;;;;;;16.60;14.97;;;8.50;99.90;;;;;;5029728;28;20174;-77
2023/01/07 00:40:19;;;;;;;20.00;18.30;;;8.40;99.90;;;;;;5024599;28;20202;-78
2023/01/07 00:43:00;;;;;;;20.23;18.33;;;8.50;99.90;;;;;;5022545;28;20549;-78
2023/01/07 00:45:28;;;;;;;25.50;23.53;;;8.50;99.90;;;;;;5030471;28;20191;-78
2023/01/07 00:47:55;;;;;;;21.73;20.03;;;8.50;99.90;;;;;;5028200;28;20249;-77
2023/01/07 00:50:24;;;;;;;18.10;16.50;;;8.50;99.90;;;;;;5027100;28;20208;-77
2023/01/07 00:52:50;;;;;;;20.73;18.87;;;8.40;99.90;;;;;;5018871;28;20286;-77
2023/01/07 00:55:16;;;;;;;20.83;18.93;;;8.40;99.90;;;;;;5029122;28;20266;-77
2023/01/07 00:57:42;;;;;;;21.70;20.00;;;8.40;99.90;;;;;;5028340;28;20671;-77
2023/01/07 01:00:11;;;;;;;30.27;27.97;;;8.40;99.90;;;;;;5018272;28;20183;-78
2023/01/07 01:02:37;;;;;;;34.90;32.40;;;8.40;99.90;;;;;;5008796;28;20212;-77
2023/01/07 01:05:03;;;;;;;46.50;43.37;;;8.40;99.90;;;;;;5011256;28;20194;-78
2023/01/07 01:07:29;;;;;;;31.97;29.53;;;8.40;99.90;;;;;;5029463;28;20221;-76
2023/01/07 01:09:55;;;;;;;28.27;25.87;;;8.50;99.90;;;;;;5028510;28;20797;-76
2023/01/07 01:12:21;;;;;;;24.23;22.33;;;8.50;99.90;;;;;;5029633;28;20575;-77
2023/01/07 01:14:47;;;;;;;21.10;19.30;;;8.50;99.90;;;;;;5029845;28;20206;-76
2023/01/07 01:17:14;;;;;;;17.73;15.97;;;8.50;99.90;;;;;;5028280;28;20179;-76
2023/01/07 01:19:40;;;;;;;15.83;13.80;;;8.50;99.90;;;;;;5027938;28;20186;-76
2023/01/07 01:22:05;;;;;;;14.97;13.47;;;8.50;99.90;;;;;;5028630;28;20559;-75
2023/01/07 01:24:31;;;;;;;15.73;14.13;;;8.40;99.90;;;;;;5029578;28;20183;-75
2023/01/07 01:26:57;;;;;;;15.67;14.17;;;8.40;99.90;;;;;;5029965;28;20276;-76
2023/01/07 01:29:23;;;;;;;16.03;13.80;;;8.40;99.90;;;;;;5033480;28;20203;-76
2023/01/07 01:31:49;;;;;;;17.07;14.77;;;8.40;99.90;;;;;;5033221;28;20210;-75
2023/01/07 01:34:15;;;;;;;15.50;14.03;;;8.50;99.90;;;;;;5032390;28;20213;-75
2023/01/07 01:36:40;;;;;;;16.27;14.63;;;8.50;99.90;;;;;;5031521;28;20199;-76
2023/01/07 01:39:06;;;;;;;16.77;14.53;;;8.40;99.90;;;;;;5031592;28;20175;-77
2023/01/07 01:41:33;;;;;;;15.90;14.30;;;8.40;99.90;;;;;;5033091;28;20659;-76
2023/01/07 01:43:59;;;;;;;16.50;14.33;;;8.40;99.90;;;;;;5033522;28;20789;-76
2023/01/07 01:46:36;;;;;;;14.50;13.00;;;8.40;99.90;;;;;;5031582;28;20270;-76
2023/01/07 01:49:19;;;;;;;17.60;13.50;;;8.40;99.90;;;;;;5033800;28;20776;-75
2023/01/07 01:51:53;;;;;;;15.37;13.77;;;8.40;99.90;;;;;;5038495;28;20222;-75
2023/01/07 01:54:20;;;;;;;14.80;13.30;;;8.40;99.90;;;;;;5033618;28;20292;-78
2023/01/07 01:56:50;;;;;;;17.40;14.97;;;8.40;99.90;;;;;;5030952;28;20186;-78
2023/01/07 01:59:20;;;;;;;15.93;13.73;;;8.50;99.90;;;;;;5031882;28;20179;-75
2023/01/07 02:01:47;;;;;;;17.20;14.20;;;8.40;99.90;;;;;;5032740;28;20209;-76
2023/01/07 02:04:17;;;;;;;15.97;14.17;;;8.40;99.90;;;;;;5031589;28;20226;-77
2023/01/07 02:07:06;;;;;;;17.57;13.20;;;8.40;99.90;;;;;;5031127;28;20614;-75
2023/01/07 02:09:32;;;;;;;16.00;13.83;;;8.40;99.90;;;;;;5028693;28;20195;-77
2023/01/07 02:12:31;;;;;;;14.50;13.10;;;8.40;99.90;;;;;;5032591;28;20659;-76
2023/01/07 02:15:00;;;;;;;15.13;12.57;;;8.30;99.90;;;;;;5031434;28;20241;-76
2023/01/07 02:17:41;;;;;;;16.47;12.40;;;8.40;99.90;;;;;;5030658;28;20175;-76
2023/01/07 02:20:09;;;;;;;17.10;12.40;;;8.40;99.90;;;;;;5031600;28;20332;-76
2023/01/07 02:23:13;;;;;;;13.40;11.80;;;8.40;99.90;;;;;;5031062;28;20317;-76
2023/01/07 02:25:58;;;;;;;13.80;11.87;;;8.40;99.90;;;;;;5018687;28;20194;-76
2023/01/07 02:28:26;;;;;;;13.77;12.03;;;8.40;99.90;;;;;;5031552;28;20183;-77
2023/01/07 02:31:26;;;;;;;14.00;12.20;;;8.40;99.90;;;;;;5031910;28;20206;-76
2023/01/07 02:34:00;;;;;;;14.97;11.97;;;8.40;99.90;;;;;;5031612;28;20247;-76
2023/01/07 02:36:38;;;;;;;12.30;11.03;;;8.40;99.90;;;;;;5032108;28;20206;-76
2023/01/07 02:39:35;;;;;;;13.83;11.83;;;8.40;99.90;;;;;;5029928;28;20266;-76
2023/01/07 02:42:27;;;;;;;13.03;11.10;;;8.40;99.90;;;;;;5031161;28;20186;-76
2023/01/07 02:45:18;;;;;;;13.90;12.57;;;8.40;99.90;;;;;;5000319;28;20199;-76
2023/01/07 02:47:52;;;;;;;14.40;12.83;;;8.40;99.90;;;;;;5029793;28;20198;-76
2023/01/07 02:50:18;;;;;;;14.00;12.60;;;8.40;99.90;;;;;;5030343;28;20698;-76
2023/01/07 02:52:43;;;;;;;13.73;12.47;;;8.30;99.90;;;;;;5030175;28;20226;-77
2023/01/07 02:55:16;;;;;;;13.63;12.17;;;8.30;99.90;;;;;;5033338;28;20260;-76
2023/01/07 02:58:18;;;;;;;14.17;12.80;;;8.30;99.90;;;;;;5029829;28;20566;-76
2023/01/07 03:01:03;;;;;;;13.70;12.00;;;8.30;99.90;;;;;;5030327;28;20209;-76
2023/01/07 03:03:34;;;;;;;13.27;12.00;;;8.30;99.90;;;;;;5029865;28;20707;-76
2023/01/07 03:06:38;;;;;;;12.47;11.23;;;8.30;99.90;;;;;;5030499;28;20676;-76
2023/01/07 03:09:55;;;;;;;15.40;12.33;;;8.30;99.90;;;;;;5030239;28;20282;-77
2023/01/07 03:12:39;;;;;;;13.17;11.67;;;8.30;99.90;;;;;;5005225;28;20195;-77
2023/01/07 03:15:23;;;;;;;12.37;11.17;;;8.30;99.90;;;;;;5031252;28;20189;-76
2023/01/07 03:18:15;;;;;;;12.47;11.17;;;8.30;99.90;;;;;;5030184;28;20285;-76
2023/01/07 03:20:43;;;;;;;11.00;10.00;;;8.30;99.90;;;;;;5030452;28;20187;-77
2023/01/07 03:23:11;;;;;;;11.20;10.23;;;8.30;99.90;;;;;;5036945;28;20195;-77
2023/01/07 03:25:43;;;;;;;12.50;10.90;;;8.30;99.90;;;;;;5029333;28;20187;-76
2023/01/07 03:28:12;;;;;;;11.37;10.17;;;8.30;99.90;;;;;;5030569;28;20183;-76
2023/01/07 03:30:38;;;;;;;11.37;10.27;;;8.30;99.90;;;;;;5030895;28;20226;-76
2023/01/07 03:33:15;;;;;;;11.90;10.80;;;8.30;99.90;;;;;;5030570;28;20719;-77
2023/01/07 03:35:45;;;;;;;10.67;9.60;;;8.30;99.90;;;;;;5031366;28;20310;-76
2023/01/07 03:38:13;;;;;;;9.60;8.80;;;8.30;99.90;;;;;;5030244;28;20194;-76
2023/01/07 03:40:39;;;;;;;10.20;9.30;;;8.30;99.90;;;;;;5029475;28;20186;-76
2023/01/07 03:43:12;;;;;;;12.50;9.83;;;8.30;99.90;;;;;;5029443;28;20202;-77
2023/01/07 03:45:38;;;;;;;10.03;8.97;;;8.30;99.90;;;;;;5029821;28;20178;-76
2023/01/07 03:48:04;;;;;;;12.13;11.00;;;8.40;99.90;;;;;;5030181;28;20179;-76
2023/01/07 03:50:29;;;;;;;11.90;10.70;;;8.30;99.90;;;;;;5028770;28;20257;-76
2023/01/07 03:52:55;;;;;;;13.93;12.53;;;8.30;99.90;;;;;;5030169;28;20202;-78
2023/01/07 03:55:22;;;;;;;13.23;12.03;;;8.30;99.90;;;;;;5031576;28;20183;-77
2023/01/07 03:57:48;;;;;;;13.40;12.10;;;8.40;99.90;;;;;;5029735;28;20229;-77
2023/01/07 04:00:14;;;;;;;13.47;12.27;;;8.40;99.90;;;;;;5029819;28;20179;-77
2023/01/07 04:02:43;;;;;;;13.13;12.00;;;8.30;99.90;;;;;;5028993;28;20203;-76
2023/01/07 04:05:10;;;;;;;14.97;13.37;;;8.30;99.90;;;;;;5030264;28;20613;-76
2023/01/07 04:07:36;;;;;;;14.43;13.03;;;8.30;99.90;;;;;;5028617;28;20186;-76
2023/01/07 04:10:04;;;;;;;14.83;13.47;;;8.30;99.90;;;;;;5030301;28;20179;-77
2023/01/07 04:12:30;;;;;;;14.53;13.23;;;8.30;99.90;;;;;;5030758;28;20668;-76
2023/01/07 04:14:56;;;;;;;14.30;12.90;;;8.30;99.90;;;;;;5029438;28;20182;-75
2023/01/07 04:17:21;;;;;;;14.07;12.87;;;8.30;99.90;;;;;;5029634;28;20177;-76
2023/01/07 04:19:48;;;;;;;12.50;11.30;;;8.40;99.90;;;;;;5028373;28;20183;-77
2023/01/07 04:22:14;;;;;;;12.80;11.60;;;8.30;99.90;;;;;;5012717;28;20632;-77
2023/01/07 04:24:40;;;;;;;11.53;10.43;;;8.30;99.90;;;;;;5029952;28;20585;-77
2023/01/07 04:27:06;;;;;;;10.97;9.87;;;8.30;99.90;;;;;;5029818;28;20186;-77
2023/01/07 04:29:32;;;;;;;11.50;10.37;;;8.30;99.90;;;;;;5030144;28;20180;-77
2023/01/07 04:31:57;;;;;;;9.60;8.80;;;8.30;99.90;;;;;;5029288;28;20573;-77
2023/01/07 04:34:23;;;;;;;9.37;8.43;;;8.30;99.90;;;;;;5028836;28;20280;-77
2023/01/07 04:36:49;;;;;;;9.67;8.83;;;8.30;99.90;;;;;;5028003;28;20178;-77
2023/01/07 04:39:15;;;;;;;10.00;9.20;;;8.30;99.90;;;;;;5030077;28;20183;-77
2023/01/07 04:41:41;;;;;;;9.37;8.67;;;8.30;99.90;;;;;;5028864;28;20262;-77
2023/01/07 04:44:07;;;;;;;8.80;8.20;;;8.30;99.90;;;;;;5028719;28;20368;-78
2023/01/07 04:46:32;;;;;;;8.33;7.40;;;8.30;99.90;;;;;;5029828;28;20208;-76
2023/01/07 04:48:58;;;;;;;12.00;8.40;;;8.20;99.90;;;;;;5038768;28;20179;-76
2023/01/07 04:51:24;;;;;;;10.03;9.33;;;8.20;99.90;;;;;;5041328;28;20691;-76
2023/01/07 04:53:50;;;;;;;10.23;9.53;;;8.20;99.90;;;;;;5033536;28;20692;-76
2023/01/07 04:56:15;;;;;;;10.43;9.60;;;8.10;99.90;;;;;;5030694;28;20209;-76
2023/01/07 04:58:42;;;;;;;10.37;8.60;;;8.10;99.90;;;;;;5029318;28;20176;-77
2023/01/07 05:01:08;;;;;;;9.10;8.13;;;8.10;99.90;;;;;;5029210;28;20210;-76
2023/01/07 05:03:34;;;;;;;10.70;9.70;;;8.10;99.90;;;;;;5032529;28;20213;-76
2023/01/07 05:06:00;;;;;;;12.13;10.07;;;8.10;99.90;;;;;;5032937;28;20566;-77
2023/01/07 05:08:26;;;;;;;10.90;9.90;;;8.10;99.90;;;;;;5032212;28;20540;-77
2023/01/07 05:10:52;;;;;;;10.10;9.07;;;8.10;99.90;;;;;;5033402;28;20206;-77
2023/01/07 05:13:21;;;;;;;11.40;10.27;;;8.20;99.90;;;;;;5032116;28;20231;-77
2023/01/07 05:15:47;;;;;;;9.60;8.80;;;8.20;99.90;;;;;;5033713;28;20674;-77
2023/01/07 05:18:13;;;;;;;10.27;9.33;;;8.20;99.90;;;;;;5031741;28;20175;-76
2023/01/07 05:20:39;;;;;;;10.17;9.27;;;8.20;99.90;;;;;;5032479;28;20266;-76
2023/01/07 05:23:06;;;;;;;11.37;10.37;;;8.20;99.90;;;;;;5032424;28;20883;-76
2023/01/07 05:25:32;;;;;;;9.83;9.03;;;8.20;99.90;;;;;;5032206;28;20199;-76
2023/01/07 05:27:59;;;;;;;13.63;10.20;;;8.20;99.90;;;;;;5031325;28;20195;-77
2023/01/07 05:30:24;;;;;;;13.50;10.70;;;8.30;99.90;;;;;;5033062;28;20694;-77
2023/01/07 05:32:50;;;;;;;12.13;11.03;;;8.20;99.90;;;;;;5031752;28;20258;-77
2023/01/07 05:35:16;;;;;;;11.37;10.37;;;8.20;99.90;;;;;;5032997;28;20260;-76
2023/01/07 05:37:42;;;;;;;13.73;12.33;;;8.20;99.90;;;;;;5031962;28;20217;-75
2023/01/07 05:40:08;;;;;;;14.80;13.30;;;8.20;99.90;;;;;;5032765;28;20248;-76
2023/01/07 05:42:34;;;;;;;14.23;12.93;;;8.20;99.90;;;;;;5031829;28;20214;-76
2023/01/07 05:45:00;;;;;;;15.50;14.03;;;8.20;99.90;;;;;;5032530;28;20241;-76
2023/01/07 05:47:26;;;;;;;16.63;12.50;;;8.20;99.90;;;;;;5031178;28;20879;-76
2023/01/07 05:49:52;;;;;;;14.00;12.70;;;8.20;99.90;;;;;;5031412;28;20275;-76
2023/01/07 05:52:18;;;;;;;12.03;10.93;;;8.20;99.90;;;;;;5031838;28;20577;-76
2023/01/07 05:54:43;;;;;;;12.60;11.40;;;8.20;99.90;;;;;;5035063;28;20186;-77
2023/01/07 05:57:10;;;;;;;12.67;11.40;;;8.20;99.90;;;;;;5032707;28;20617;-76
2023/01/07 05:59:36;;;;;;;11.83;10.63;;;8.20;99.90;;;;;;5031467;28;20181;-76
2023/01/07 06:02:02;;;;;;;10.70;9.80;;;8.30;99.90;;;;;;5031571;28;20186;-76
2023/01/07 06:04:28;;;;;;;9.40;8.50;;;8.30;99.90;;;;;;5032404;28;20179;-76
2023/01/07 06:06:53;;;;;;;12.83;11.90;;;8.10;99.90;;;;;;5030781;28;20210;-75
2023/01/07 06:09:19;;;;;;;16.10;14.60;;;8.20;99.90;;;;;;5031434;28;20183;-76
2023/01/07 06:11:45;;;;;;;15.97;14.77;;;8.10;99.90;;;;;;5030956;28;20207;-77
2023/01/07 06:14:10;;;;;;;18.63;17.33;;;8.10;99.90;;;;;;5031775;28;20234;-77
2023/01/07 06:16:36;;;;;;;14.50;13.40;;;8.10;99.90;;;;;;5032243;28;20739;-76
2023/01/07 06:19:02;;;;;;;12.60;11.57;;;8.10;99.90;;;;;;5031765;28;20557;-76
2023/01/07 06:21:28;;;;;;;11.20;10.30;;;8.10;99.90;;;;;;5031521;28;20549;-76
2023/01/07 06:23:55;;;;;;;10.33;9.23;;;8.20;99.90;;;;;;5032007;28;20222;-76
2023/01/07 06:26:21;;;;;;;9.93;9.03;;;8.10;99.90;;;;;;5043870;28;20188;-75
2023/01/07 06:28:47;;;;;;;8.93;8.23;;;8.20;99.90;;;;;;5044875;28;20260;-74
2023/01/07 06:31:13;;;;;;;9.33;8.43;;;8.10;99.90;;;;;;5041251;28;20650;-76
2023/01/07 06:33:39;;;;;;;8.90;8.10;;;8.10;99.90;;;;;;5031782;28;20219;-76
2023/01/07 06:36:06;;;;;;;8.60;7.90;;;8.10;99.90;;;;;;5031089;28;20175;-76
2023/01/07 06:38:33;;;;;;;8.63;7.93;;;8.20;99.90;;;;;;5030044;28;20186;-76
2023/01/07 06:41:00;;;;;;;10.03;9.00;;;8.10;99.90;;;;;;5030408;28;20184;-76
2023/01/07 06:43:26;;;;;;;9.17;8.50;;;8.10;99.90;;;;;;5031969;28;20277;-76
2023/01/07 06:45:52;;;;;;;9.03;8.40;;;8.10;99.90;;;;;;5031683;28;20179;-75
2023/01/07 06:48:17;;;;;;;9.63;8.93;;;8.10;99.90;;;;;;5031066;28;20711;-76
2023/01/07 06:50:44;;;;;;;9.97;9.20;;;8.10;99.90;;;;;;5030373;28;20223;-75
2023/01/07 06:53:09;;;;;;;9.27;8.57;;;8.10;99.90;;;;;;5032166;28;20288;-76
2023/01/07 06:55:35;;;;;;;8.03;7.53;;;8.20;99.90;;;;;;5032509;28;20231;-77
2023/01/07 06:58:01;;;;;;;7.67;7.07;;;8.20;99.90;;;;;;5030878;28;20270;-76
2023/01/07 07:00:27;;;;;;;8.40;7.73;;;8.10;99.90;;;;;;5029923;28;20266;-76
2023/01/07 07:02:53;;;;;;;12.83;11.90;;;8.10;99.90;;;;;;5030324;28;20202;-76
2023/01/07 07:05:19;;;;;;;17.00;15.70;;;8.10;99.90;;;;;;5031160;28;20179;-76
2023/01/07 07:07:45;;;;;;;20.47;18.97;;;8.10;99.90;;;;;;5029554;28;20592;-76
2023/01/07 07:10:11;;;;;;;19.40;18.10;;;8.10;99.90;;;;;;5031105;28;20211;-76
2023/01/07 07:12:37;;;;;;;20.60;19.13;;;8.10;99.90;;;;;;5031144;28;20712;-75
2023/01/07 07:15:05;;;;;;;21.23;19.70;;;8.10;99.90;;;;;;5029903;28;20182;-76
2023/01/07 07:17:30;;;;;;;24.60;22.87;;;8.10;99.90;;;;;;5029423;28;20233;-76
2023/01/07 07:19:56;;;;;;;26.70;24.93;;;8.10;99.90;;;;;;5030922;28;20189;-76
2023/01/07 07:22:22;;;;;;;23.70;22.00;;;8.10;99.90;;;;;;5031357;28;20179;-76
2023/01/07 07:24:48;;;;;;;25.13;23.17;;;8.10;99.90;;;;;;5029668;28;20187;-75
2023/01/07 07:27:13;;;;;;;25.17;23.57;;;8.20;99.90;;;;;;5030381;28;20233;-75
2023/01/07 07:29:39;;;;;;;25.33;23.23;;;8.20;99.90;;;;;;5029023;28;20179;-76
2023/01/07 07:32:05;;;;;;;18.30;17.17;;;8.20;99.90;;;;;;5030057;28;20218;-75
2023/01/07 07:34:30;;;;;;;12.40;11.60;;;8.20;99.90;;;;;;5032077;28;20194;-76
2023/01/07 07:36:56;;;;;;;12.43;11.40;;;8.20;99.90;;;;;;5031746;28;20660;-77
2023/01/07 07:39:22;;;;;;;13.73;12.63;;;8.10;99.90;;;;;;5030331;28;20237;-77
2023/01/07 07:41:48;;;;;;;12.57;11.70;;;8.20;99.90;;;;;;5030704;28;20204;-76
2023/01/07 07:44:13;;;;;;;16.70;15.57;;;8.20;99.90;;;;;;5029943;28;20573;-76
2023/01/07 07:46:39;;;;;;;17.70;16.50;;;8.20;99.90;;;;;;5030616;28;20175;-77
2023/01/07 07:49:05;;;;;;;23.70;22.30;;;8.20;99.90;;;;;;5031164;28;20609;-77
2023/01/07 07:51:31;;;;;;;24.10;22.60;;;8.20;99.90;;;;;;5029943;28;20966;-77
2023/01/07 07:53:57;;;;;;;23.30;21.60;;;8.20;99.90;;;;;;5032831;28;20198;-76
2023/01/07 07:56:23;;;;;;;25.40;23.90;;;8.20;99.90;;;;;;5033646;28;20528;-76
2023/01/07 07:58:49;;;;;;;23.80;22.03;;;8.20;99.90;;;;;;5028458;28;20712;-77
2023/01/07 08:01:16;;;;;;;17.00;15.77;;;8.20;99.90;;;;;;5029157;28;20554;-76
2023/01/07 08:03:42;;;;;;;15.73;14.43;;;8.30;99.90;;;;;;5030666;28;20199;-76
2023/01/07 08:06:09;;;;;;;10.83;9.83;;;8.30;99.90;;;;;;5031070;28;20189;-76
2023/01/07 08:08:35;;;;;;;10.47;9.33;;;8.40;99.90;;;;;;5048366;28;20190;-76
2023/01/07 08:11:02;;;;;;;10.57;9.20;;;8.30;99.90;;;;;;5043086;28;20207;-76
2023/01/07 08:13:29;;;;;;;9.43;8.53;;;8.30;99.90;;;;;;5033901;28;20203;-77
2023/01/07 08:15:55;;;;;;;9.57;8.67;;;8.30;99.90;;;;;;5030182;28;20189;-77
2023/01/07 08:18:22;;;;;;;17.93;10.27;;;8.40;99.90;;;;;;5029585;28;20175;-76
2023/01/07 08:20:49;;;;;;;10.93;9.87;;;8.50;99.90;;;;;;5029719;28;20553;-77
2023/01/07 08:23:16;;;;;;;11.47;10.10;;;8.50;99.90;;;;;;5030356;28;20203;-76
2023/01/07 08:25:42;;;;;;;10.70;9.30;;;8.40;99.90;;;;;;5029505;28;20235;-76
2023/01/07 08:28:09;;;;;;;11.77;10.87;;;8.50;99.90;;;;;;5028897;28;20183;-76
2023/01/07 08:30:35;;;;;;;26.73;24.67;;;8.50;99.90;;;;;;5025370;28;20720;-76
2023/01/07 08:33:04;;;;;;;39.57;36.97;;;8.60;99.90;;;;;;5025930;28;20214;-75
2023/01/07 08:35:30;;;;;;;48.37;45.67;;;8.60;99.90;;;;;;5028495;28;20683;-75
2023/01/07 08:38:07;;;;;;;52.60;49.77;;;8.70;99.90;;;;;;5020243;28;20210;-75
2023/01/07 08:40:34;;;;;;;65.30;61.30;;;8.80;99.90;;;;;;5033807;28;20214;-77
2023/01/07 08:43:02;;;;;;;77.77;73.57;;;8.80;99.90;;;;;;5034371;28;20316;-77
2023/01/07 08:45:29;;;;;;;64.37;60.90;;;8.80;99.90;;;;;;5030105;28;20187;-77
2023/01/07 08:47:58;;;;;;;56.97;53.83;;;8.90;99.90;;;;;;5032118;28;20202;-76
2023/01/07 08:50:25;;;;;;;24.37;22.70;;;8.90;99.90;;;;;;5032751;28;20199;-77
2023/01/07 08:52:51;;;;;;;12.80;11.80;;;8.90;99.90;;;;;;5037265;28;20190;-77
2023/01/07 08:55:18;;;;;;;15.53;14.13;;;9.00;99.90;;;;;;5045511;28;20179;-76
2023/01/07 08:57:43;;;;;;;10.47;9.50;;;9.10;99.90;;;;;;5049076;28;20596;-76
2023/01/07 09:00:10;;;;;;;9.13;8.33;;;9.10;99.90;;;;;;5033793;28;20185;-77
2023/01/07 09:02:35;;;;;;;11.17;10.07;;;9.20;99.90;;;;;;5032714;28;20233;-76
2023/01/07 09:05:01;;;;;;;11.60;10.30;;;9.20;99.90;;;;;;5031856;28;20187;-77
2023/01/07 09:07:27;;;;;;;17.80;16.67;;;9.40;99.90;;;;;;5030913;28;20273;-77
2023/01/07 09:09:53;;;;;;;38.77;36.67;;;9.40;99.90;;;;;;5032234;28;20175;-77
2023/01/07 09:12:19;;;;;;;40.30;38.10;;;9.50;99.90;;;;;;5031705;28;20250;-76
2023/01/07 09:14:44;;;;;;;30.50;28.67;;;9.60;99.90;;;;;;5030918;28;20653;-77
2023/01/07 09:17:10;;;;;;;21.27;19.87;;;9.60;99.90;;;;;;5030483;28;20182;-77
2023/01/07 09:19:36;;;;;;;12.27;11.27;;;9.70;99.90;;;;;;5029849;28;20221;-76
2023/01/07 09:22:02;;;;;;;11.37;10.20;;;9.80;99.90;;;;;;5029235;28;20233;-77
2023/01/07 09:24:27;;;;;;;10.60;9.50;;;9.80;99.90;;;;;;5030512;28;20203;-77
2023/01/07 09:26:53;;;;;;;10.70;9.80;;;9.80;99.90;;;;;;5028659;28;20288;-72
2023/01/07 09:29:19;;;;;;;10.03;9.40;;;9.90;99.90;;;;;;5029943;28;20217;-72
2023/01/07 09:31:45;;;;;;;16.67;15.20;;;10.00;99.90;;;;;;5026848;28;20203;-72
2023/01/07 09:34:11;;;;;;;15.93;14.83;;;10.10;99.90;;;;;;5028906;28;20211;-71
2023/01/07 09:36:36;;;;;;;14.63;13.40;;;10.30;99.90;;;;;;5029312;28;20266;-72
2023/01/07 09:39:03;;;;;;;30.27;28.40;;;10.40;99.90;;;;;;5029576;28;20182;-72
2023/01/07 09:41:37;;;;;;;25.20;23.63;;;10.60;99.90;;;;;;5032381;28;20179;-72
2023/01/07 09:44:46;;;;;;;25.47;23.83;;;10.60;99.90;;;;;;5029219;28;20305;-71
2023/01/07 09:47:15;;;;;;;20.33;19.10;;;10.80;99.90;;;;;;4981117;28;20270;-73
2023/01/07 09:49:46;;;;;;;17.10;15.97;;;10.90;99.90;;;;;;5012704;28;20242;-72
2023/01/07 09:52:21;;;;;;;15.90;14.80;;;11.00;99.90;;;;;;5012021;28;20254;-73
2023/01/07 09:54:52;;;;;;;14.70;13.67;;;11.10;99.90;;;;;;5020075;28;20308;-72
2023/01/07 09:57:19;;;;;;;16.90;15.87;;;11.00;99.90;;;;;;5030493;28;20637;-72
2023/01/07 09:59:45;;;;;;;21.57;20.10;;;11.00;99.90;;;;;;5031528;28;20662;-72
2023/01/07 10:02:38;;;;;;;22.77;21.37;;;11.00;99.90;;;;;;5032755;28;20190;-73
2023/01/07 10:05:12;;;;;;;17.53;16.43;;;11.10;99.90;;;;;;5031489;28;20703;-72
2023/01/07 10:08:02;;;;;;;11.60;10.70;;;11.20;99.90;;;;;;5030798;28;20193;-73
2023/01/07 10:10:48;;;;;;;8.60;8.00;;;11.40;99.90;;;;;;5031862;28;20210;-72
2023/01/07 10:13:23;;;;;;;10.10;9.50;;;11.50;99.90;;;;;;5032313;28;20206;-72
2023/01/07 10:15:54;;;;;;;12.20;10.77;;;11.60;99.90;;;;;;5031875;28;20182;-72
2023/01/07 10:18:47;;;;;;;19.30;18.20;;;11.80;99.90;;;;;;5030478;28;20182;-72
2023/01/07 10:21:30;;;;;;;14.43;13.47;;;11.90;99.90;;;;;;5030417;28;20183;-72
2023/01/07 10:24:05;;;;;;;21.33;19.40;;;12.00;99.90;;;;;;5031728;28;20237;-71
2023/01/07 10:26:33;;;;;;;14.13;13.33;;;11.80;99.90;;;;;;5027068;28;20707;-71
2023/01/07 10:29:23;;;;;;;10.90;10.30;;;11.70;99.90;;;;;;5030942;28;20752;-71
2023/01/07 10:31:51;;;;;;;10.57;9.90;;;11.90;99.90;;;;;;5031871;28;20585;-72
2023/01/07 10:34:23;;;;;;;7.53;6.93;;;11.90;99.90;;;;;;5032011;28;20222;-70
2023/01/07 10:37:11;;;;;;;7.83;7.27;;;11.90;99.90;;;;;;5030773;28;20187;-70
2023/01/07 10:40:06;;;;;;;7.70;7.20;;;11.90;99.90;;;;;;5012022;28;20186;-71
2023/01/07 10:42:55;;;;;;;6.83;6.43;;;12.10;99.90;;;;;;5007284;28;20343;-72
2023/01/07 10:45:35;;;;;;;8.23;7.63;;;13.30;99.90;;;;;;5010462;28;20277;-71
2023/01/07 10:48:20;;;;;;;8.33;7.67;;;14.60;99.90;;;;;;5009591;28;20195;-70
2023/01/07 10:50:48;;;;;;;9.33;8.43;;;14.90;99.90;;;;;;5016038;28;20195;-69
2023/01/07 10:53:22;;;;;;;9.60;8.90;;;15.40;99.90;;;;;;5030973;28;20702;-72
2023/01/07 10:55:59;;;;;;;12.60;11.70;;;16.20;99.90;;;;;;5030553;28;20666;-71
2023/01/07 10:58:33;;;;;;;21.90;20.60;;;17.10;99.90;;;;;;5028360;28;20229;-70
2023/01/07 11:00:59;;;;;;;15.80;14.93;;;17.00;99.90;;;;;;5031359;28;20568;-70
2023/01/07 11:03:25;;;;;;;11.00;10.30;;;17.80;99.90;;;;;;5031515;28;20207;-70
2023/01/07 11:05:56;;;;;;;12.80;12.10;;;18.20;99.90;;;;;;5030384;28;20195;-70
2023/01/07 11:08:35;;;;;;;10.13;9.53;;;19.00;99.90;;;;;;5030521;28;20596;-69
2023/01/07 11:11:04;;;;;;;9.33;8.63;;;20.00;99.90;;;;;;5034737;28;20242;-70
2023/01/07 11:13:32;;;;;;;9.40;8.87;;;19.20;99.90;;;;;;5036807;28;20644;-70
2023/01/07 11:16:06;;;;;;;9.27;8.77;;;19.50;98.20;;;;;;5033713;28;20190;-70
2023/01/07 11:18:59;;;;;;;9.47;8.87;;;19.70;97.20;;;;;;5013976;28;20175;-73
2023/01/07 11:21:31;;;;;;;11.80;11.10;;;19.80;97.00;;;;;;5028280;28;20187;-71
2023/01/07 11:23:57;;;;;;;11.70;11.10;;;19.70;95.50;;;;;;5025817;28;20210;-71
2023/01/07 11:26:30;;;;;;;12.47;11.77;;;18.80;96.10;;;;;;5026809;28;20676;-72
2023/01/07 11:29:14;;;;;;;10.33;9.73;;;18.90;96.00;;;;;;5029656;28;20536;-72
2023/01/07 11:31:54;;;;;;;15.53;14.63;;;19.50;95.50;;;;;;5031911;28;20687;-72
2023/01/07 11:34:52;;;;;;;18.50;17.50;;;19.20;95.20;;;;;;5031226;28;20291;-70
2023/01/07 11:37:39;;;;;;;14.70;13.67;;;19.10;94.60;;;;;;5032802;28;20198;-70
2023/01/07 11:40:27;;;;;;;9.67;9.17;;;17.70;96.80;;;;;;5041032;22;20833;-74
2023/01/07 11:42:54;;;;;;;10.37;9.77;;;18.10;98.60;;;;;;5025290;28;20187;-75
2023/01/07 11:45:27;;;;;;;13.37;12.63;;;19.50;96.40;;;;;;5019471;28;20184;-74
2023/01/07 11:48:04;;;;;;;19.63;18.63;;;20.40;93.60;;;;;;5015359;28;20668;-76
2023/01/07 11:51:01;;;;;;;14.43;13.67;;;19.80;92.70;;;;;;5011993;28;20207;-75
2023/01/07 11:53:38;;;;;;;13.53;12.83;;;19.60;93.40;;;;;;5010718;28;20227;-76
2023/01/07 11:56:05;;;;;;;18.97;18.00;;;20.30;93.20;;;;;;5011243;28;20765;-76
2023/01/07 11:59:12;;;;;;;22.20;21.10;;;20.80;91.10;;;;;;5010449;28;20229;-75
2023/01/07 12:01:43;;;;;;;19.53;18.47;;;21.20;90.70;;;;;;5009205;28;20179;-76
2023/01/07 12:04:25;;;;;;;20.50;19.40;;;21.00;89.10;;;;;;5009946;28;20188;-75
2023/01/07 12:06:53;;;;;;;19.20;18.07;;;20.20;90.30;;;;;;5010514;28;20274;-76
2023/01/07 12:09:31;;;;;;;22.10;20.60;;;20.10;91.10;;;;;;5010555;28;20203;-76
2023/01/07 12:12:05;;;;;;;19.17;18.10;;;19.30;91.10;;;;;;5010509;28;20590;-75
2023/01/07 12:14:35;;;;;;;18.20;16.90;;;19.00;91.50;;;;;;5011243;28;20337;-77
2023/01/07 12:17:15;;;;;;;15.33;14.47;;;19.90;91.50;;;;;;5009477;28;20191;-75
2023/01/07 12:19:59;;;;;;;13.10;12.30;;;19.30;91.10;;;;;;5010314;28;20226;-75
2023/01/07 12:22:37;;;;;;;11.40;10.60;;;18.90;92.10;;;;;;5009156;28;20559;-75
2023/01/07 12:25:18;;;;;;;11.30;10.40;;;18.70;92.40;;;;;;5010555;28;20273;-75
2023/01/07 12:27:50;;;;;;;14.83;14.03;;;19.30;91.60;;;;;;5009744;28;20175;-76
2023/01/07 12:30:48;;;;;;;13.40;12.60;;;19.90;90.60;;;;;;5009730;28;20214;-76
2023/01/07 12:33:24;;;;;;;10.77;10.17;;;19.30;91.10;;;;;;5010282;28;20187;-76
2023/01/07 12:35:51;;;;;;;12.43;11.63;;;19.50;91.20;;;;;;5010461;28;20190;-76
2023/01/07 12:38:27;;;;;;;16.63;15.77;;;19.60;90.90;;;;;;5009138;28;20549;-76
2023/01/07 12:40:59;;;;;;;22.17;20.87;;;19.70;90.10;;;;;;5009736;28;20215;-74
2023/01/07 12:43:36;;;;;;;15.30;14.50;;;19.80;89.40;;;;;;5008907;28;20241;-75
2023/01/07 12:46:05;;;;;;;15.63;14.80;;;20.00;90.20;;;;;;5010172;28;20233;-76
2023/01/07 12:48:54;;;;;;;16.73;15.83;;;20.20;90.00;;;;;;5007869;28;20187;-75
2023/01/07 12:51:27;;;;;;;20.80;19.50;;;20.80;87.30;;;;;;5009460;28;20866;-76
2023/01/07 12:54:11;;;;;;;17.47;16.57;;;20.30;85.70;;;;;;5009980;28;20235;-76
2023/01/07 12:56:57;;;;;;;15.40;14.43;;;20.70;84.90;;;;;;5008812;28;20229;-75